Time;durP1;ratioP1;P1;durP2;ratioP2;P2;SDS_P1;SDS_P2;PMS_P1;PMS_P2;Temp;Humidity;BMP_temperature;BMP_pressure;BME280_temperature;BME280_humidity;BME280_pressure;Samples;Min_cycle;Max_cycle;Signal;HPM_P1;HPM_P2
2023/01/05 00:01:18;;;;;;;14.23;5.55;;;;;;;1.79;77.82;102134.69;1903747;75;21184;-52
2023/01/05 00:03:47;;;;;;;21.48;6.53;;;;;;;1.79;77.77;102135.98;1903558;75;21139;-50
2023/01/05 00:06:17;;;;;;;20.08;5.72;;;;;;;1.80;77.73;102140.32;1903308;75;21178;-48
2023/01/05 00:08:46;;;;;;;12.40;5.05;;;;;;;1.81;77.66;102144.69;1903749;75;21084;-49
2023/01/05 00:22:31;;;;;;;17.85;6.50;;;;;;;1.77;77.56;102137.69;1916967;75;21077;-49
2023/01/05 00:25:05;;;;;;;9.70;3.85;;;;;;;1.71;77.55;102136.24;1916662;75;21133;-49
2023/01/05 00:27:34;;;;;;;18.90;7.30;;;;;;;1.68;77.57;102140.09;1917089;75;21038;-54
2023/01/05 00:30:04;;;;;;;11.00;5.35;;;;;;;1.61;77.76;102133.03;1917736;75;21453;-52
2023/01/05 00:32:33;;;;;;;11.33;5.08;;;;;;;1.58;77.85;102136.84;1917267;75;21551;-48
2023/01/05 00:35:02;;;;;;;11.80;5.67;;;;;;;1.59;77.91;102133.42;1917144;75;21133;-49
2023/01/05 00:37:36;;;;;;;12.50;5.35;;;;;;;1.62;77.84;102132.16;1917526;75;21113;-55
2023/01/05 00:40:08;;;;;;;10.68;5.35;;;;;;;1.64;77.79;102126.17;1916619;75;21147;-54
2023/01/05 00:42:36;;;;;;;13.08;5.05;;;;;;;1.63;77.82;102130.03;1916050;75;21200;-52
2023/01/05 00:45:08;;;;;;;15.10;5.50;;;;;;;1.64;77.76;102131.77;1916872;75;21073;-49
2023/01/05 00:47:36;;;;;;;11.15;4.80;;;;;;;1.66;77.70;102127.48;1917585;75;21107;-50
2023/01/05 00:50:06;;;;;;;20.17;5.50;;;;;;;1.69;77.63;102121.92;1918427;75;21110;-52
2023/01/05 00:52:35;;;;;;;14.75;6.45;;;;;;;1.71;77.59;102115.47;1905199;75;21051;-49
2023/01/05 00:55:04;;;;;;;13.50;5.78;;;;;;;1.71;77.57;102124.13;1887706;75;21176;-49
2023/01/05 00:57:33;;;;;;;15.63;5.53;;;;;;;1.70;77.62;102115.03;1906387;75;21165;-52
2023/01/05 01:00:03;;;;;;;8.25;3.62;;;;;;;1.66;77.66;102114.50;1903171;75;21128;-54
2023/01/05 01:02:32;;;;;;;14.53;6.00;;;;;;;1.64;77.69;102101.91;1889474;75;21012;-50
2023/01/05 01:05:01;;;;;;;13.38;5.45;;;;;;;1.61;77.57;102097.98;1910317;75;21509;-49
2023/01/05 01:07:31;;;;;;;18.87;5.65;;;;;;;1.56;77.72;102098.30;1901755;75;21127;-50
2023/01/05 01:10:00;;;;;;;11.45;5.00;;;;;;;1.49;77.72;102094.69;1884052;76;21802;-49
2023/01/05 01:12:29;;;;;;;11.53;4.35;;;;;;;1.44;77.62;102086.83;1915559;75;21068;-52
2023/01/05 01:14:58;;;;;;;17.15;5.92;;;;;;;1.37;77.64;102092.73;1919343;75;21044;-49
2023/01/05 01:17:26;;;;;;;13.25;5.65;;;;;;;1.32;77.60;102099.55;1917304;74;21073;-50
2023/01/05 01:19:55;;;;;;;13.80;5.87;;;;;;;1.25;77.64;102096.36;1893186;74;21228;-53
2023/01/05 01:22:23;;;;;;;11.88;5.40;;;;;;;1.20;77.72;102097.98;1929567;73;21050;-50
2023/01/05 01:24:53;;;;;;;12.93;5.12;;;;;;;1.18;77.81;102091.88;1920138;73;21050;-50
2023/01/05 01:27:22;;;;;;;22.40;6.78;;;;;;;1.14;77.79;102089.25;1909574;73;21038;-101
2023/01/05 01:29:51;;;;;;;15.48;5.85;;;;;;;1.14;77.77;102098.33;1917541;73;21160;-49
2023/01/05 01:32:20;;;;;;;12.28;5.40;;;;;;;1.14;77.86;102091.84;1916037;74;21192;-53
2023/01/05 01:34:49;;;;;;;16.95;5.70;;;;;;;1.06;78.05;102097.27;1924413;73;21198;-50
2023/01/05 01:37:19;;;;;;;10.28;4.95;;;;;;;1.01;78.27;102091.09;1882859;76;21097;-49
2023/01/05 01:39:49;;;;;;;16.97;4.53;;;;;;;0.97;78.32;102089.28;1923591;73;21121;-49
2023/01/05 01:42:18;;;;;;;13.08;5.17;;;;;;;0.93;78.15;102078.39;1922250;75;21078;-49
2023/01/05 01:44:51;;;;;;;10.18;5.47;;;;;;;0.86;78.04;102084.28;1937849;73;21050;-49
2023/01/05 01:47:27;;;;;;;17.37;5.50;;;;;;;0.78;77.98;102091.02;1956601;73;21156;-51
2023/01/05 01:49:59;;;;;;;13.98;5.22;;;;;;;0.70;77.98;102086.53;1956566;73;21371;-49
2023/01/05 01:52:29;;;;;;;15.72;5.47;;;;;;;0.64;78.00;102092.85;1956655;73;21445;-50
2023/01/05 01:54:59;;;;;;;10.63;4.60;;;;;;;0.59;78.10;102091.89;1956682;73;21038;-51
2023/01/05 01:57:29;;;;;;;11.88;6.37;;;;;;;0.55;78.46;102093.93;1956535;73;21505;-49
2023/01/05 02:00:00;;;;;;;17.65;6.08;;;;;;;0.49;78.35;102087.31;1956380;73;21473;-52
2023/01/05 02:02:30;;;;;;;16.70;6.05;;;;;;;0.44;78.21;102088.91;1956661;73;21055;-51
2023/01/05 02:05:01;;;;;;;10.13;5.50;;;;;;;0.36;78.10;102087.00;1956219;73;21457;-49
2023/01/05 02:07:33;;;;;;;12.00;4.87;;;;;;;0.30;78.16;102070.45;1956228;73;21026;-51
2023/01/05 02:10:03;;;;;;;14.58;6.42;;;;;;;0.27;78.22;102077.71;1940656;73;21022;-52
2023/01/05 02:12:46;;;;;;;13.00;6.25;;;;;;;0.24;78.33;102078.95;1889738;76;21202;-49
2023/01/05 02:15:37;;;;;;;14.80;5.30;;;;;;;0.20;78.62;102075.80;1906971;74;21108;-50
2023/01/05 02:18:16;;;;;;;10.82;4.53;;;;;;;0.16;78.78;102077.86;1925665;74;21541;-49
2023/01/05 02:20:50;;;;;;;17.73;7.03;;;;;;;0.08;78.81;102073.80;1917267;74;21220;-50
2023/01/05 02:23:25;;;;;;;12.80;5.87;;;;;;;0.04;78.92;102073.27;1885718;76;21015;-51
2023/01/05 02:26:28;;;;;;;12.33;5.97;;;;;;;-0.01;79.00;102069.24;1885408;75;21612;-53
2023/01/05 02:29:18;;;;;;;17.17;7.40;;;;;;;-0.05;79.16;102062.23;1884882;75;21539;-51
2023/01/05 02:31:52;;;;;;;12.00;4.95;;;;;;;-0.06;79.13;102060.47;1846367;75;21575;-54
2023/01/05 02:34:32;;;;;;;13.75;6.05;;;;;;;-0.10;79.29;102052.17;1885000;75;21095;-54
2023/01/05 02:37:17;;;;;;;16.87;6.05;;;;;;;-0.12;79.53;102048.67;1869065;75;21063;-49
2023/01/05 02:39:58;;;;;;;19.65;5.42;;;;;;;-0.12;79.32;102056.87;1885623;75;21098;-49
2023/01/05 02:42:29;;;;;;;10.60;4.65;;;;;;;-0.14;79.22;102059.41;1866483;77;21096;-53
2023/01/05 02:45:04;;;;;;;8.40;4.58;;;;;;;-0.18;79.32;102061.47;1896937;75;21055;-54
2023/01/05 02:47:35;;;;;;;13.25;5.03;;;;;;;-0.23;79.17;102058.74;1900427;75;21223;-51
2023/01/05 02:50:08;;;;;;;11.50;5.43;;;;;;;-0.27;79.10;102056.92;1900636;75;21146;-54
2023/01/05 02:53:00;;;;;;;6.87;3.58;;;;;;;-0.30;79.01;102056.83;1900386;75;21129;-54
2023/01/05 02:55:41;;;;;;;6.62;3.02;;;;;;;-0.36;79.11;102055.38;1900520;75;21059;-54
2023/01/05 02:58:19;;;;;;;10.65;4.53;;;;;;;-0.40;79.31;102053.55;1900068;75;21043;-55
2023/01/05 03:01:09;;;;;;;13.30;5.40;;;;;;;-0.44;79.34;102056.47;1900360;75;21450;-54
2023/01/05 03:03:47;;;;;;;9.90;4.65;;;;;;;-0.47;79.25;102063.27;1833061;75;21145;-52
2023/01/05 03:06:30;;;;;;;11.55;4.12;;;;;;;-0.51;79.37;102054.55;1900505;75;21063;-50
2023/01/05 03:09:02;;;;;;;9.35;3.12;;;;;;;-0.54;79.25;102054.45;1900541;75;21070;-49
2023/01/05 03:14:51;;;;;;;8.68;4.12;;;;;;;-0.63;79.29;102049.02;1884290;75;21015;-51
2023/01/05 03:17:27;;;;;;;11.50;4.35;;;;;;;-0.72;79.28;102048.37;1873001;76;21604;-50
2023/01/05 03:19:58;;;;;;;17.87;5.80;;;;;;;-0.85;79.51;102039.77;1878548;75;21035;-50
2023/01/05 03:36:58;;;;;;;15.13;5.75;;;;;;;-0.97;79.47;102027.38;1905954;75;21028;-51
2023/01/05 03:39:30;;;;;;;8.38;3.85;;;;;;;-1.00;79.87;102014.35;1905059;75;21046;-53
2023/01/05 03:42:01;;;;;;;8.98;4.00;;;;;;;-1.02;79.84;102003.09;1905604;75;21054;-54
2023/01/05 03:44:30;;;;;;;14.53;4.78;;;;;;;-1.01;79.82;102019.08;1904428;75;21490;-53
2023/01/05 03:46:59;;;;;;;10.93;4.37;;;;;;;-1.06;79.76;102024.10;1904610;75;21559;-53
2023/01/05 03:49:28;;;;;;;7.12;3.20;;;;;;;-1.11;79.72;102014.46;1905193;75;21155;-54
2023/01/05 03:51:56;;;;;;;9.68;4.37;;;;;;;-1.17;79.68;102012.58;1906105;75;21049;-52
2023/01/05 03:54:26;;;;;;;6.10;3.40;;;;;;;-1.19;79.73;102009.94;1906210;75;21511;-48
2023/01/05 03:56:54;;;;;;;8.35;3.75;;;;;;;-1.24;80.01;102015.38;1905969;75;21009;-48
2023/01/05 03:59:23;;;;;;;9.18;5.12;;;;;;;-1.25;79.94;102023.98;1906157;74;21070;-47
2023/01/05 04:01:52;;;;;;;11.25;5.05;;;;;;;-1.26;80.21;102017.05;1906164;75;21139;-48
2023/01/05 04:04:21;;;;;;;14.73;7.92;;;;;;;-1.28;80.04;102017.42;1906156;75;21175;-48
2023/01/05 04:06:50;;;;;;;8.65;3.70;;;;;;;-1.32;80.02;102011.70;1906359;75;21488;-48
2023/01/05 04:09:19;;;;;;;11.90;5.17;;;;;;;-1.37;80.28;102023.59;1905918;75;21057;-48
2023/01/05 04:11:47;;;;;;;15.32;4.58;;;;;;;-1.38;80.40;102023.16;1873854;76;21089;-47
2023/01/05 04:14:16;;;;;;;5.50;2.85;;;;;;;-1.39;80.25;102018.80;1873937;76;21063;-48
2023/01/05 04:16:46;;;;;;;8.18;3.87;;;;;;;-1.41;80.23;102020.05;1874099;76;21074;-48
2023/01/05 04:19:16;;;;;;;14.83;5.58;;;;;;;-1.40;80.24;102033.86;1873468;76;21081;-50
2023/01/05 04:21:46;;;;;;;7.10;3.02;;;;;;;-1.47;80.35;102025.45;1902902;74;21076;-48
2023/01/05 04:24:15;;;;;;;12.73;3.85;;;;;;;-1.56;80.52;102027.33;1926143;74;21026;-48
2023/01/05 04:26:44;;;;;;;7.12;4.05;;;;;;;-1.59;80.52;102031.09;1926323;74;21078;-48
2023/01/05 04:29:14;;;;;;;8.20;3.37;;;;;;;-1.59;80.54;102028.09;1926158;74;21108;-49
2023/01/05 04:31:44;;;;;;;10.72;4.78;;;;;;;-1.59;80.48;102017.76;1905715;73;21573;-48
2023/01/05 04:34:14;;;;;;;14.13;6.00;;;;;;;-1.57;80.39;102020.39;1892522;75;21503;-49
2023/01/05 04:36:46;;;;;;;11.18;5.25;;;;;;;-1.56;80.53;102023.03;1892676;76;21032;-48
2023/01/05 04:39:16;;;;;;;14.53;5.35;;;;;;;-1.59;80.65;102019.05;1892616;76;21040;-54
2023/01/05 04:41:47;;;;;;;15.53;6.08;;;;;;;-1.60;81.05;102018.61;1894633;74;21002;-53
2023/01/05 04:44:18;;;;;;;4.42;1.82;;;;;;;-1.62;80.93;102014.23;1883302;76;21060;-54
2023/01/05 04:46:47;;;;;;;12.65;5.53;;;;;;;-1.65;80.90;102007.25;1860899;77;21560;-53
2023/01/05 04:49:16;;;;;;;9.95;4.90;;;;;;;-1.64;80.83;102013.28;1860918;76;21076;-50
2023/01/05 04:51:46;;;;;;;10.80;4.75;;;;;;;-1.66;81.00;102009.77;1870006;74;21087;-55
2023/01/05 04:54:16;;;;;;;10.15;4.55;;;;;;;-1.67;80.94;102015.36;1892641;75;21483;-48
2023/01/05 04:56:44;;;;;;;3.42;2.12;;;;;;;-1.69;80.88;102007.98;1892654;75;21063;-49
2023/01/05 04:59:14;;;;;;;7.20;3.37;;;;;;;-1.68;80.91;101998.09;1892575;76;21059;-53
2023/01/05 05:01:44;;;;;;;7.20;4.65;;;;;;;-1.67;80.79;102008.91;1898251;74;21038;-50
2023/01/05 05:04:14;;;;;;;12.45;5.87;;;;;;;-1.65;80.69;102007.25;1904298;75;21064;-51
2023/01/05 05:06:43;;;;;;;16.87;5.85;;;;;;;-1.66;80.79;102009.77;1892658;76;21079;-51
2023/01/05 05:09:12;;;;;;;17.35;5.92;;;;;;;-1.68;80.86;102009.72;1892655;76;21036;-51
2023/01/05 05:11:41;;;;;;;11.83;5.17;;;;;;;-1.73;80.95;101996.20;1892574;76;21115;-52
2023/01/05 05:14:09;;;;;;;8.45;3.35;;;;;;;-1.71;80.96;101995.44;1920765;74;21042;-51
2023/01/05 05:16:39;;;;;;;14.10;5.67;;;;;;;-1.68;80.97;101999.39;1926224;74;21050;-53
2023/01/05 05:19:10;;;;;;;12.03;6.15;;;;;;;-1.64;80.92;101990.94;1926173;74;21146;-54
2023/01/05 05:21:38;;;;;;;8.23;3.98;;;;;;;-1.57;81.02;101990.30;1926240;74;21506;-54
2023/01/05 05:24:08;;;;;;;13.38;6.35;;;;;;;-1.47;80.97;102000.91;1922059;74;21053;-51
2023/01/05 05:26:38;;;;;;;11.03;5.45;;;;;;;-1.36;80.98;101995.66;1922270;74;21120;-54
2023/01/05 05:29:07;;;;;;;5.92;1.62;;;;;;;-1.20;80.89;101988.81;1922292;75;21120;-55
2023/01/05 05:31:36;;;;;;;3.40;2.05;;;;;;;-0.94;80.78;101987.41;1922287;75;21042;-54
2023/01/05 05:34:05;;;;;;;8.63;4.12;;;;;;;-0.61;80.49;101978.39;1922078;74;21035;-48
2023/01/05 05:36:35;;;;;;;6.25;2.42;;;;;;;-0.24;80.02;101974.17;1922227;75;21008;-49
2023/01/05 05:39:04;;;;;;;15.98;5.55;;;;;;;0.09;79.36;101971.06;1922171;73;21546;-50
2023/01/05 05:41:32;;;;;;;5.72;3.22;;;;;;;0.28;78.74;101964.19;1922375;74;21028;-49
2023/01/05 05:44:01;;;;;;;8.58;4.25;;;;;;;0.57;78.23;101961.35;1922060;75;21034;-50
2023/01/05 05:46:30;;;;;;;11.08;4.80;;;;;;;0.81;77.64;101962.29;1922211;75;21022;-51
2023/01/05 05:48:59;;;;;;;7.15;3.75;;;;;;;1.07;77.16;101969.33;1922405;75;21534;-51
2023/01/05 05:51:28;;;;;;;12.53;4.22;;;;;;;1.36;76.49;101969.00;1922180;75;21124;-53
2023/01/05 05:53:57;;;;;;;5.55;2.87;;;;;;;1.47;75.92;101964.88;1922228;75;21033;-50
2023/01/05 05:56:26;;;;;;;9.95;4.10;;;;;;;1.35;75.61;101975.05;1922105;75;21037;-50
2023/01/05 05:58:54;;;;;;;7.25;4.15;;;;;;;1.30;75.56;101969.76;1922290;75;21135;-53
2023/01/05 06:01:23;;;;;;;9.50;5.03;;;;;;;1.24;75.69;101964.46;1922117;75;21083;-50
2023/01/05 06:03:52;;;;;;;7.33;4.85;;;;;;;1.46;75.81;101953.19;1922209;75;21106;-47
2023/01/05 06:06:20;;;;;;;12.35;4.97;;;;;;;2.12;74.93;101960.75;1922222;75;21000;-50
2023/01/05 06:08:49;;;;;;;5.45;3.55;;;;;;;2.98;73.41;101971.47;1922271;75;21083;-47
2023/01/05 06:11:18;;;;;;;18.45;7.35;;;;;;;3.46;72.07;101970.27;1922394;73;21043;-48
2023/01/05 06:13:47;;;;;;;10.10;5.37;;;;;;;4.11;71.74;101959.96;1922139;75;21044;-47
2023/01/05 06:16:16;;;;;;;9.00;5.05;;;;;;;4.58;70.58;101963.31;1922202;74;21035;-47
2023/01/05 06:18:45;;;;;;;12.10;5.83;;;;;;;4.95;69.68;101960.88;1922305;75;21439;-47
2023/01/05 06:21:14;;;;;;;15.05;6.08;;;;;;;5.30;68.30;101956.19;1922387;75;21037;-50
2023/01/05 06:23:42;;;;;;;10.93;5.17;;;;;;;5.70;67.70;101958.87;1923232;74;21127;-49
2023/01/05 06:26:11;;;;;;;12.98;5.12;;;;;;;6.30;67.16;101955.37;1926052;74;21014;-50
2023/01/05 06:28:40;;;;;;;11.40;5.60;;;;;;;7.14;67.10;101960.77;1926107;74;21091;-49
2023/01/05 06:31:09;;;;;;;11.00;5.42;;;;;;;7.29;63.22;101964.60;1922568;74;21181;-50
2023/01/05 06:33:37;;;;;;;7.22;3.37;;;;;;;7.35;63.12;101962.37;1925771;74;21048;-50
2023/01/05 06:36:06;;;;;;;11.73;5.15;;;;;;;7.72;63.08;101955.13;1925867;74;21114;-52
2023/01/05 06:38:35;;;;;;;7.83;3.02;;;;;;;8.30;63.27;101937.14;1925917;73;21123;-52
2023/01/05 06:41:04;;;;;;;9.63;4.67;;;;;;;8.86;62.29;101952.70;1922236;74;21011;-51
2023/01/05 06:43:33;;;;;;;9.80;4.10;;;;;;;9.35;61.80;101955.55;1925791;74;21009;-52
2023/01/05 06:46:02;;;;;;;8.20;3.27;;;;;;;9.85;61.61;101958.73;1925699;74;21478;-49
2023/01/05 06:48:30;;;;;;;11.08;4.42;;;;;;;10.20;61.19;101944.55;1925675;74;21040;-49
2023/01/05 06:50:59;;;;;;;7.97;2.90;;;;;;;10.21;59.66;101944.50;1925911;74;21091;-49
2023/01/05 06:53:28;;;;;;;6.87;3.02;;;;;;;10.28;58.79;101943.95;1922801;74;21033;-48
2023/01/05 06:55:56;;;;;;;8.13;3.65;;;;;;;10.50;58.60;101943.58;1925658;74;21044;-49
2023/01/05 06:58:25;;;;;;;11.08;3.55;;;;;;;10.68;57.63;101941.90;1925824;74;21056;-53
2023/01/05 07:00:57;;;;;;;7.15;3.15;;;;;;;10.80;56.69;101941.63;1925782;74;21048;-51
2023/01/05 07:03:25;;;;;;;5.05;2.58;;;;;;;11.10;55.51;101942.33;1896147;74;21067;-52
2023/01/05 07:05:54;;;;;;;11.20;3.55;;;;;;;10.69;55.39;101937.48;1892681;76;21110;-54
2023/01/05 07:08:22;;;;;;;6.10;2.98;;;;;;;9.91;56.16;101935.39;1892526;74;21036;-51
2023/01/05 07:10:51;;;;;;;7.62;3.17;;;;;;;9.32;56.88;101931.97;1892617;76;21052;-54
2023/01/05 07:13:26;;;;;;;14.33;3.80;;;;;;;9.13;57.60;101932.23;1914363;74;21071;-53
2023/01/05 07:15:54;;;;;;;10.72;4.22;;;;;;;9.14;56.44;101931.32;1925977;74;21032;-54
2023/01/05 07:18:23;;;;;;;4.15;3.30;;;;;;;9.63;55.84;101912.19;1925771;74;21032;-56
2023/01/05 07:20:52;;;;;;;4.78;2.83;;;;;;;10.24;54.59;101918.59;1925885;73;21056;-54
2023/01/05 07:23:20;;;;;;;5.92;2.75;;;;;;;11.24;53.85;101924.90;1923359;74;21119;-54
2023/01/05 07:25:49;;;;;;;10.38;3.20;;;;;;;12.18;52.64;101916.86;1922687;74;21110;-53
2023/01/05 07:28:18;;;;;;;3.17;2.02;;;;;;;13.24;52.11;101920.41;1922366;73;21127;-50
2023/01/05 07:30:51;;;;;;;13.28;3.22;;;;;;;13.70;51.95;101919.38;1922317;73;21123;-53
2023/01/05 07:33:19;;;;;;;;;;;;;;;12.79;52.98;101912.94;1924665;75;21453;-50
2023/01/05 07:35:48;;;;;;;5.45;2.47;;;;;;;12.85;53.24;101907.46;1922399;75;20193;-53
2023/01/05 07:38:17;;;;;;;6.45;2.83;;;;;;;13.68;51.86;101915.92;1922333;75;21102;-52
2023/01/05 07:40:45;;;;;;;7.05;2.22;;;;;;;14.55;49.89;101905.38;1922303;74;21069;-52
2023/01/05 07:43:15;;;;;;;7.03;2.50;;;;;;;15.29;49.33;101900.35;1922103;75;21057;-52
2023/01/05 07:45:44;;;;;;;6.83;2.60;;;;;;;15.34;49.15;101889.95;1924172;74;21476;-49
2023/01/05 07:48:12;;;;;;;5.87;2.35;;;;;;;15.20;49.31;101901.61;1925723;74;21196;-50
2023/01/05 07:50:41;;;;;;;4.53;2.10;;;;;;;14.92;47.97;101884.56;1925773;74;21118;-51
2023/01/05 07:53:10;;;;;;;2.98;2.12;;;;;;;15.18;48.06;101881.77;1925806;74;21048;-51
2023/01/05 07:55:38;;;;;;;5.75;2.10;;;;;;;15.55;46.75;101884.23;1922684;74;21086;-50
2023/01/05 07:58:12;;;;;;;5.80;2.47;;;;;;;15.37;46.78;101883.20;1922343;75;21036;-51
2023/01/05 08:00:37;;;;;;;3.62;2.22;;;;;;;14.89;47.09;101872.31;1921278;73;21110;-52
2023/01/05 08:03:06;;;;;;;6.80;2.33;;;;;;;14.88;47.42;101863.94;1921700;75;21033;-55
2023/01/05 08:05:36;;;;;;;6.33;2.60;;;;;;;15.74;46.49;101863.11;1922327;75;21025;-54
2023/01/05 08:08:05;;;;;;;8.78;2.30;;;;;;;16.48;45.60;101859.83;1922253;74;21021;-54
2023/01/05 08:10:33;;;;;;;6.50;2.10;;;;;;;17.24;45.01;101854.48;1922289;75;21033;-54
2023/01/05 08:15:52;;;;;;;3.10;1.85;;;;;;;16.32;45.48;101833.55;1922375;75;21100;-53
2023/01/05 08:18:21;;;;;;;10.20;2.10;;;;;;;15.16;43.75;101833.22;1922393;75;21089;-53
2023/01/05 08:20:55;;;;;;;2.00;1.22;;;;;;;15.60;42.79;101830.94;1922343;75;21077;-54
2023/01/05 08:23:28;;;;;;;2.60;1.67;;;;;;;15.72;42.94;101824.25;1921328;73;21578;-49
2023/01/05 08:25:57;;;;;;;2.67;1.67;;;;;;;15.27;43.19;101823.49;1924535;74;21547;-52
2023/01/05 08:28:26;;;;;;;4.08;2.02;;;;;;;15.37;43.48;101812.87;1925825;74;21107;-53
2023/01/05 08:31:03;;;;;;;2.55;1.90;;;;;;;16.04;42.43;101815.36;1926005;74;21452;-53
2023/01/05 08:33:32;;;;;;;3.72;2.33;;;;;;;15.29;42.46;101796.42;1926012;73;21036;-52
2023/01/05 08:36:01;;;;;;;5.12;2.42;;;;;;;14.28;43.68;101794.66;1925628;74;21467;-49
2023/01/05 08:38:30;;;;;;;5.30;1.62;;;;;;;13.70;43.79;101794.98;1925843;73;21045;-48
2023/01/05 08:40:59;;;;;;;3.08;1.80;;;;;;;13.20;43.94;101783.86;1926672;74;21057;-101
2023/01/05 08:43:28;;;;;;;4.20;2.27;;;;;;;13.35;44.12;101774.58;1925784;73;21135;-56
2023/01/05 08:45:57;;;;;;;3.25;1.10;;;;;;;14.42;42.07;101764.97;1925402;74;21044;-53
2023/01/05 08:48:26;;;;;;;5.25;2.05;;;;;;;15.48;41.14;101781.05;1925702;73;21121;-52
2023/01/05 08:50:54;;;;;;;3.72;1.92;;;;;;;15.93;39.98;101758.72;1925835;74;21427;-47
2023/01/05 08:53:23;;;;;;;3.12;1.67;;;;;;;16.87;39.80;101761.84;1925933;74;21095;-48
2023/01/05 08:55:52;;;;;;;4.00;2.27;;;;;;;17.13;38.23;101761.01;1925693;74;21006;-52
2023/01/05 08:58:20;;;;;;;3.25;2.10;;;;;;;17.68;36.88;101735.52;1925825;74;21102;-49
2023/01/05 09:00:52;;;;;;;2.15;1.57;;;;;;;17.43;36.77;101737.75;1925881;74;21044;-48
2023/01/05 09:03:21;;;;;;;5.35;2.08;;;;;;;16.95;37.86;101717.11;1923671;74;21062;-54
2023/01/05 09:05:54;;;;;;;4.97;2.12;;;;;;;17.13;38.00;101717.10;1925688;74;21042;-55
2023/01/05 09:08:22;;;;;;;4.20;1.80;;;;;;;17.79;37.59;101705.66;1924642;74;21107;-55
2023/01/05 09:10:51;;;;;;;6.37;1.57;;;;;;;16.36;38.81;101707.59;1926137;74;21068;-48
2023/01/05 09:13:19;;;;;;;3.60;1.67;;;;;;;14.45;41.06;101695.97;1925992;74;21080;-49
2023/01/05 09:15:48;;;;;;;3.42;1.98;;;;;;;12.92;42.79;101679.50;1892676;76;21121;-55
2023/01/05 09:18:17;;;;;;;2.37;1.37;;;;;;;11.66;44.75;101676.80;1917996;74;21009;-55
2023/01/05 09:20:47;;;;;;;3.58;1.65;;;;;;;10.92;46.35;101673.48;1925667;74;21063;-54
2023/01/05 09:23:16;;;;;;;4.28;2.08;;;;;;;11.14;46.71;101674.69;1914692;74;21122;-56
2023/01/05 09:25:44;;;;;;;2.58;1.70;;;;;;;11.10;46.75;101678.31;1921461;74;21065;-57
2023/01/05 09:28:13;;;;;;;2.98;1.75;;;;;;;10.66;47.58;101684.68;1906336;74;21025;-57
2023/01/05 09:30:42;;;;;;;4.80;2.50;;;;;;;10.46;48.26;101677.25;1887613;76;21052;-57
2023/01/05 09:33:10;;;;;;;3.85;1.85;;;;;;;10.90;47.91;101673.98;1892208;75;21119;-57
2023/01/05 09:35:39;;;;;;;3.25;1.85;;;;;;;10.89;48.34;101674.45;1922294;75;21126;-54
2023/01/05 09:38:08;;;;;;;3.10;1.77;;;;;;;11.18;48.36;101666.25;1922231;75;21047;-55
2023/01/05 09:40:39;;;;;;;5.50;1.70;;;;;;;11.75;47.63;101657.60;1922041;75;21100;-55
2023/01/05 09:43:11;;;;;;;3.52;1.20;;;;;;;11.46;48.15;101642.61;1920604;74;21044;-55
2023/01/05 09:45:40;;;;;;;2.52;1.15;;;;;;;10.85;48.89;101643.81;1922046;74;21061;-55
2023/01/05 09:48:13;;;;;;;1.90;1.10;;;;;;;10.43;49.63;101645.29;1920591;73;21119;-56
2023/01/05 09:50:43;;;;;;;4.12;1.75;;;;;;;10.36;50.12;101635.80;1922264;73;21523;-57
2023/01/05 09:53:14;;;;;;;2.83;1.62;;;;;;;11.45;48.39;101580.67;1922189;74;21101;-55
2023/01/05 09:55:45;;;;;;;3.27;2.02;;;;;;;11.19;48.45;101624.03;1922202;75;21040;-56
2023/01/05 09:58:20;;;;;;;2.85;1.80;;;;;;;10.75;49.47;101624.76;1922387;73;21467;-56
2023/01/05 10:01:02;;;;;;;5.12;1.70;;;;;;;10.20;50.44;101623.44;1922018;73;21048;-56
2023/01/05 10:03:32;;;;;;;3.22;1.50;;;;;;;10.47;50.49;101615.80;1921940;73;21161;-56
2023/01/05 10:06:01;;;;;;;2.90;1.47;;;;;;;10.88;50.22;101600.70;1922304;74;21478;-51
2023/01/05 10:08:33;;;;;;;2.35;1.50;;;;;;;11.20;49.55;101591.47;1922317;75;21475;-54
2023/01/05 10:14:10;;;;;;;3.02;1.72;;;;;;;13.36;46.17;101573.96;1920283;74;21145;-54
2023/01/05 10:16:43;;;;;;;2.10;1.55;;;;;;;14.80;42.99;101582.34;1921177;74;21124;-51
2023/01/05 10:19:17;;;;;;;4.50;2.25;;;;;;;14.81;42.78;101574.33;1922361;75;21512;-50
2023/01/05 10:21:54;;;;;;;3.98;1.90;;;;;;;14.08;43.90;101562.34;1922256;75;21485;-52
2023/01/05 10:24:26;;;;;;;2.42;1.50;;;;;;;12.79;46.06;101568.52;1921916;74;21113;-55
2023/01/05 10:27:18;;;;;;;3.30;1.82;;;;;;;11.79;47.89;101567.34;1922170;74;21061;-55
2023/01/05 10:29:49;;;;;;;4.78;2.08;;;;;;;11.28;49.08;101556.98;1887543;74;21620;-55
2023/01/05 10:32:29;;;;;;;2.37;1.15;;;;;;;11.08;49.61;101555.37;1922253;73;21022;-54
2023/01/05 10:35:03;;;;;;;2.65;1.62;;;;;;;10.69;50.77;101548.97;1921044;73;21053;-54
2023/01/05 10:38:09;;;;;;;3.30;1.60;;;;;;;10.88;50.96;101546.69;1921804;73;21046;-56
2023/01/05 10:40:49;;;;;;;4.15;1.40;;;;;;;11.39;50.53;101540.84;1921853;74;21012;-54
2023/01/05 10:43:36;;;;;;;5.58;2.12;;;;;;;11.31;50.44;101542.86;1921231;73;21221;-56
2023/01/05 10:46:08;;;;;;;6.92;2.17;;;;;;;10.72;51.53;101514.66;1922299;75;21028;-56
2023/01/05 10:48:37;;;;;;;2.25;1.40;;;;;;;10.61;52.01;101525.47;1922035;75;21140;-51
2023/01/05 10:51:07;;;;;;;6.70;1.98;;;;;;;10.68;52.01;101525.72;1922364;75;21525;-50
2023/01/05 10:53:42;;;;;;;2.52;1.45;;;;;;;11.05;51.51;101535.25;1922458;73;21468;-49
2023/01/05 10:56:17;;;;;;;5.37;2.02;;;;;;;10.88;51.72;101515.08;1922301;73;21507;-51
2023/01/05 10:58:46;;;;;;;4.08;1.90;;;;;;;10.64;52.42;101517.47;1921731;74;21034;-56
2023/01/05 11:01:27;;;;;;;5.90;2.58;;;;;;;10.37;52.91;101535.73;1922451;75;21005;-56
2023/01/05 11:04:04;;;;;;;7.25;2.98;;;;;;;10.02;53.62;101513.75;1921696;74;21014;-56
2023/01/05 11:06:35;;;;;;;7.83;2.50;;;;;;;9.87;54.07;101497.03;1914689;74;21497;-56
2023/01/05 11:09:18;;;;;;;4.37;1.65;;;;;;;9.75;54.55;101518.36;1921677;74;21020;-51
2023/01/05 11:11:55;;;;;;;5.95;2.52;;;;;;;9.64;54.98;101512.88;1922370;75;21055;-56
2023/01/05 11:14:25;;;;;;;5.33;2.33;;;;;;;9.61;55.21;101501.59;1922175;74;21003;-53
2023/01/05 11:16:56;;;;;;;4.97;2.45;;;;;;;9.40;55.83;101487.15;1922003;74;21428;-53
2023/01/05 11:19:28;;;;;;;4.40;1.75;;;;;;;9.28;56.17;101487.84;1920592;74;21070;-55
2023/01/05 11:21:57;;;;;;;6.15;1.57;;;;;;;9.32;56.35;101508.35;1923508;73;21014;-52
2023/01/05 11:24:32;;;;;;;6.87;2.42;;;;;;;9.35;56.57;101491.64;1923759;73;21006;-53
2023/01/05 11:27:04;;;;;;;3.17;1.45;;;;;;;9.28;56.66;101489.61;1954313;73;21066;-49
2023/01/05 11:29:33;;;;;;;3.60;1.75;;;;;;;9.20;56.90;101476.64;1943333;73;21485;-56
2023/01/05 11:32:04;;;;;;;6.62;1.72;;;;;;;9.13;57.17;101501.73;1901360;73;21101;-54
2023/01/05 11:34:45;;;;;;;4.22;2.42;;;;;;;9.10;57.38;101500.05;1932494;73;21112;-57
2023/01/05 11:37:22;;;;;;;3.17;1.75;;;;;;;9.04;57.66;101493.63;1878650;76;21553;-54
2023/01/05 11:39:58;;;;;;;4.53;2.00;;;;;;;8.99;57.87;101493.70;1878822;76;21050;-56
2023/01/05 11:42:27;;;;;;;2.90;1.57;;;;;;;9.03;57.85;101497.13;1877925;76;21130;-56
2023/01/05 11:45:01;;;;;;;6.17;2.02;;;;;;;9.04;57.87;101481.80;1879002;76;21146;-56
2023/01/05 11:47:33;;;;;;;3.95;1.72;;;;;;;9.00;57.82;101480.11;1878499;76;21049;-50
2023/01/05 11:50:11;;;;;;;4.62;2.17;;;;;;;8.96;57.92;101471.88;1878915;76;21150;-50
2023/01/05 11:52:42;;;;;;;1.42;0.80;;;;;;;8.94;58.07;101475.00;1878977;75;21052;-53
2023/01/05 11:55:28;;;;;;;5.28;1.92;;;;;;;8.86;58.36;101462.88;1879043;76;21053;-50
2023/01/05 11:57:59;;;;;;;13.15;2.60;;;;;;;8.83;58.54;101458.14;1878948;75;21121;-54
2023/01/05 12:00:36;;;;;;;3.65;1.72;;;;;;;8.85;58.68;101451.98;1879606;74;21025;-51
2023/01/05 12:03:29;;;;;;;7.97;2.20;;;;;;;8.92;58.74;101451.84;1917195;75;21056;-56
2023/01/05 12:06:01;;;;;;;6.12;2.05;;;;;;;8.93;58.91;101444.36;1915664;74;21066;-55
2023/01/05 12:08:47;;;;;;;2.55;1.45;;;;;;;9.01;59.15;101434.57;1921359;75;21106;-49
2023/01/05 12:11:18;;;;;;;4.47;2.27;;;;;;;9.13;59.02;101423.80;1920298;74;21445;-55
2023/01/05 12:14:16;;;;;;;4.25;2.20;;;;;;;9.18;59.11;101426.31;1920340;74;21078;-55
2023/01/05 12:16:48;;;;;;;4.10;1.72;;;;;;;9.17;59.25;101404.44;1921414;75;21623;-55
2023/01/05 12:19:36;;;;;;;2.67;1.52;;;;;;;9.20;59.38;101427.14;1921387;75;21155;-55
2023/01/05 12:22:33;;;;;;;3.95;2.10;;;;;;;9.21;59.27;101413.13;1921050;75;21065;-55